Time;durP1;ratioP1;P1;durP2;ratioP2;P2;SDS_P1;SDS_P2;PMS_P1;PMS_P2;Temp;Humidity;BMP_temperature;BMP_pressure;BME280_temperature;BME280_humidity;BME280_pressure;Samples;Min_cycle;Max_cycle;Signal;HPM_P1;HPM_P2
2021/07/25 00:00:44;;;;;;;17.13;11.62;;;;;;;23.11;52.03;99443.03;392542;104;1988031;-69
2021/07/25 00:01:49;;;;;;;21.06;12.58;;;;;;;22.97;52.05;99440.17;373240;107;1962058;-70
2021/07/25 00:03:01;;;;;;;16.63;11.42;;;;;;;23.08;52.18;99448.31;394113;104;1987031;-69
2021/07/25 00:04:08;;;;;;;17.82;12.02;;;;;;;22.95;52.28;99444.30;329111;107;2796998;-69
2021/07/25 00:05:13;;;;;;;22.26;12.22;;;;;;;22.93;52.37;99446.52;335035;106;2065993;-69
2021/07/25 00:06:25;;;;;;;16.78;11.47;;;;;;;23.02;52.55;99450.28;395314;104;1985947;-69
2021/07/25 00:07:30;;;;;;;18.74;11.53;;;;;;;22.89;52.28;99435.28;373252;107;1962002;-71
2021/07/25 00:08:35;;;;;;;19.43;12.43;;;;;;;22.87;52.43;99440.25;374303;107;1964970;-70
2021/07/25 00:09:41;;;;;;;17.78;12.44;;;;;;;22.87;52.38;99447.70;374287;107;1964938;-72
2021/07/25 00:10:47;;;;;;;19.24;12.67;;;;;;;22.86;52.45;99435.84;365725;109;1962878;-70
2021/07/25 00:12:00;;;;;;;18.85;13.03;;;;;;;22.94;52.65;99443.48;338781;104;2873960;-71
2021/07/25 00:13:05;;;;;;;20.97;12.63;;;;;;;22.82;52.62;99434.80;352939;105;1965010;-69
2021/07/25 00:14:10;;;;;;;18.80;12.39;;;;;;;22.79;52.76;99430.70;329144;109;2039042;-71
2021/07/25 00:15:16;;;;;;;16.19;12.01;;;;;;;22.79;52.86;99436.20;348797;107;1961847;-70
2021/07/25 00:16:28;;;;;;;20.79;12.58;;;;;;;22.88;53.06;99436.37;401714;104;1985970;-69
2021/07/25 00:17:33;;;;;;;18.67;12.62;;;;;;;22.75;52.91;99442.58;378457;105;1962036;-69
2021/07/25 00:18:46;;;;;;;18.72;12.14;;;;;;;22.85;53.15;99439.72;359697;104;2871960;-70
2021/07/25 00:19:52;;;;;;;18.57;13.12;;;;;;;22.72;52.98;99438.48;337998;107;2018985;-68
2021/07/25 00:21:15;;;;;;;17.46;11.53;;;;;;;22.71;53.11;99447.05;370238;107;1962119;-70
2021/07/25 00:22:27;;;;;;;17.29;12.14;;;;;;;22.81;53.41;99439.49;332725;104;2301037;-70
2021/07/25 00:23:33;;;;;;;21.40;12.76;;;;;;;22.69;53.44;99441.81;331729;107;2082939;-70
2021/07/25 00:24:51;;;;;;;19.14;12.48;;;;;;;22.81;53.73;99445.00;393585;104;1986971;-71
2021/07/25 00:25:56;;;;;;;19.16;11.86;;;;;;;22.70;53.70;99443.45;368960;108;1961860;-69
2021/07/25 00:27:27;;;;;;;18.53;12.57;;;;;;;22.69;53.73;99441.00;322193;108;2823996;-70
2021/07/25 00:28:33;;;;;;;17.16;11.90;;;;;;;22.79;54.14;99441.71;392724;104;1987984;-71
2021/07/25 00:29:39;;;;;;;19.58;12.63;;;;;;;22.69;54.18;99446.52;324057;107;2883043;-70
2021/07/25 00:30:52;;;;;;;20.58;13.50;;;;;;;22.79;54.34;99440.90;392313;104;1973028;-69
2021/07/25 00:32:05;;;;;;;19.05;12.63;;;;;;;22.68;54.44;99444.84;376491;107;1961844;-71
2021/07/25 00:33:17;;;;;;;21.20;12.88;;;;;;;22.78;54.56;99441.99;393126;103;1986018;-70
2021/07/25 00:34:22;;;;;;;18.85;12.93;;;;;;;22.66;54.49;99436.09;372464;105;1965003;-69
2021/07/25 00:35:46;;;;;;;20.03;12.73;;;;;;;22.65;54.51;99440.78;332464;110;2529992;-70
2021/07/25 00:36:59;;;;;;;17.73;11.12;;;;;;;22.76;54.84;99434.04;395828;104;1964019;-70
2021/07/25 00:38:04;;;;;;;16.61;11.85;;;;;;;22.65;54.52;99439.93;379272;105;1969922;-69
2021/07/25 00:39:17;;;;;;;18.23;12.84;;;;;;;22.74;54.65;99438.20;349775;104;2750071;-69
2021/07/25 00:40:44;;;;;;;19.71;11.92;;;;;;;22.63;54.54;99439.42;368142;106;1963898;-69
2021/07/25 00:42:07;;;;;;;16.12;11.80;;;;;;;22.63;54.50;99440.23;347792;106;1961972;-68
2021/07/25 00:43:28;;;;;;;18.00;12.87;;;;;;;22.72;54.64;99435.72;394665;104;1986054;-67
2021/07/25 00:44:42;;;;;;;20.89;13.47;;;;;;;22.69;54.49;99441.81;396482;104;1988036;-69
2021/07/25 00:46:06;;;;;;;24.67;12.51;;;;;;;22.58;54.42;99443.05;370895;107;1961982;-70
2021/07/25 00:47:18;;;;;;;16.09;11.73;;;;;;;22.67;54.50;99440.47;378814;105;2918040;-68
2021/07/25 00:48:25;;;;;;;17.98;12.91;;;;;;;22.53;54.35;99446.66;325130;107;2789980;-67
2021/07/25 00:49:31;;;;;;;18.36;11.82;;;;;;;22.54;54.44;99440.03;369568;107;1962024;-68
2021/07/25 00:50:43;;;;;;;19.12;13.76;;;;;;;22.61;54.61;99440.52;391434;103;2073033;-69
2021/07/25 00:51:49;;;;;;;19.09;12.37;;;;;;;22.49;54.44;99445.61;372198;107;1961990;-68
2021/07/25 00:53:02;;;;;;;17.20;11.77;;;;;;;22.57;54.82;99438.63;394809;104;1962097;-69
2021/07/25 00:54:14;;;;;;;17.56;12.72;;;;;;;22.56;54.86;99445.26;382263;106;2081067;-68
2021/07/25 00:55:41;;;;;;;18.08;12.60;;;;;;;22.43;54.75;99434.92;369673;108;1966054;-69
2021/07/25 00:56:53;;;;;;;18.12;12.06;;;;;;;22.54;54.58;99442.78;391774;104;1986029;-69
2021/07/25 00:58:01;;;;;;;17.42;12.15;;;;;;;22.45;54.40;99436.28;374057;106;1963047;-70
2021/07/25 00:59:06;;;;;;;18.11;11.76;;;;;;;22.43;54.50;99434.92;373880;106;1963055;-68
2021/07/25 01:00:19;;;;;;;19.18;12.69;;;;;;;22.56;54.56;99443.32;377910;106;2075895;-69
2021/07/25 01:01:25;;;;;;;20.04;13.12;;;;;;;22.46;54.45;99446.17;363291;110;1962953;-69
2021/07/25 01:02:41;;;;;;;20.03;12.88;;;;;;;22.56;54.70;99442.50;349766;104;2123953;-68
2021/07/25 01:04:05;;;;;;;15.79;12.08;;;;;;;22.55;54.86;99440.88;386655;104;1985964;-68
2021/07/25 01:05:41;;;;;;;22.48;12.71;;;;;;;22.43;54.65;99443.19;323705;106;2182941;-68
2021/07/25 01:06:51;;;;;;;17.72;12.41;;;;;;;22.49;54.36;99442.02;379825;106;1964066;-70
2021/07/25 01:08:30;;;;;;;18.58;12.29;;;;;;;22.65;54.45;99445.44;340671;104;2250997;-70
2021/07/25 01:09:51;;;;;;;15.98;11.63;;;;;;;22.52;54.41;99445.03;375718;105;1962007;-69
2021/07/25 01:11:06;;;;;;;18.84;12.41;;;;;;;22.63;54.64;99444.93;388800;106;1986040;-69
2021/07/25 01:12:15;;;;;;;20.12;12.13;;;;;;;22.50;54.38;99444.49;371497;107;1962043;-70
2021/07/25 01:13:41;;;;;;;17.60;11.93;;;;;;;22.47;54.46;99447.83;372530;107;1961888;-69
2021/07/25 01:14:55;;;;;;;19.63;12.84;;;;;;;22.55;54.64;99446.38;393063;103;1986015;-69
2021/07/25 01:16:01;;;;;;;18.91;12.27;;;;;;;22.40;54.54;99450.09;314698;107;2197041;-69
2021/07/25 01:17:32;;;;;;;20.68;12.86;;;;;;;22.52;54.67;99445.03;392100;104;2080105;-70
2021/07/25 01:18:46;;;;;;;22.17;12.54;;;;;;;22.58;54.56;99448.55;396001;103;1986992;-69
2021/07/25 01:19:53;;;;;;;18.53;11.97;;;;;;;22.43;54.59;99446.75;322163;109;2810020;-69
2021/07/25 01:21:05;;;;;;;15.81;11.52;;;;;;;22.54;54.58;99453.80;392718;104;1986056;-69
2021/07/25 01:22:10;;;;;;;18.48;11.62;;;;;;;22.60;54.03;99451.84;374128;106;1962060;-69
2021/07/25 01:23:33;;;;;;;22.19;13.48;;;;;;;22.38;54.51;99446.80;375167;106;1962021;-68
2021/07/25 01:24:38;;;;;;;17.45;12.78;;;;;;;22.33;54.84;99455.09;374466;105;1962823;-69
2021/07/25 01:25:54;;;;;;;19.93;12.75;;;;;;;22.42;54.90;99452.56;387531;106;1985978;-70
2021/07/25 01:27:00;;;;;;;18.92;12.76;;;;;;;22.32;54.69;99453.47;366974;107;1964066;-69
2021/07/25 01:28:23;;;;;;;16.54;11.80;;;;;;;22.42;54.78;99450.63;393714;104;1986033;-70
2021/07/25 01:29:29;;;;;;;21.47;12.89;;;;;;;22.29;54.77;99448.55;333707;106;2431966;-69
2021/07/25 01:30:58;;;;;;;15.53;10.82;;;;;;;22.30;54.73;99450.99;351851;106;1961992;-68
2021/07/25 01:32:10;;;;;;;16.72;11.60;;;;;;;22.37;54.84;99440.48;376301;104;1986049;-68
2021/07/25 01:33:21;;;;;;;16.01;11.42;;;;;;;22.26;54.67;99444.44;376975;106;1961964;-70
2021/07/25 01:34:26;;;;;;;17.37;11.59;;;;;;;22.26;54.86;99451.87;375666;106;1962050;-70
2021/07/25 01:35:33;;;;;;;20.91;12.34;;;;;;;22.26;54.83;99447.19;369208;108;1962059;-70
2021/07/25 01:36:46;;;;;;;19.16;11.88;;;;;;;22.36;55.07;99446.27;352967;104;2101039;-68
2021/07/25 01:37:59;;;;;;;19.40;13.46;;;;;;;22.33;55.04;99446.84;381420;105;2072029;-69
2021/07/25 01:39:26;;;;;;;18.49;12.01;;;;;;;22.24;55.29;99446.66;368653;108;1962064;-69
2021/07/25 01:40:38;;;;;;;18.06;12.09;;;;;;;22.34;55.74;99446.56;391497;104;1986991;-69
2021/07/25 01:41:44;;;;;;;18.47;12.58;;;;;;;22.21;55.70;99444.48;375424;106;1962073;-67
2021/07/25 01:43:10;;;;;;;20.08;12.16;;;;;;;22.21;55.70;99449.98;354108;106;1962934;-68
2021/07/25 01:44:21;;;;;;;17.90;11.75;;;;;;;22.29;55.61;99441.11;384193;104;2908977;-68
2021/07/25 01:45:27;;;;;;;16.79;11.71;;;;;;;22.19;55.54;99441.19;369408;107;1962026;-70
2021/07/25 01:46:40;;;;;;;18.68;12.41;;;;;;;22.29;55.34;99443.86;393741;104;1986985;-70
2021/07/25 01:47:46;;;;;;;20.40;12.14;;;;;;;22.17;55.24;99440.62;376105;105;1964974;-69
2021/07/25 01:48:51;;;;;;;18.76;11.49;;;;;;;22.16;55.23;99452.75;375668;106;1961993;-69
2021/07/25 01:50:06;;;;;;;17.48;11.68;;;;;;;22.24;55.23;99445.84;355839;104;2609031;-69
2021/07/25 01:51:18;;;;;;;17.97;12.10;;;;;;;22.24;55.44;99448.59;387043;106;1985988;-69
2021/07/25 01:52:42;;;;;;;17.57;11.93;;;;;;;22.14;55.22;99442.02;368267;108;1964781;-68
2021/07/25 01:53:47;;;;;;;17.04;11.47;;;;;;;22.11;55.25;99445.34;366486;109;1961954;-69
2021/07/25 01:54:52;;;;;;;16.73;12.13;;;;;;;22.10;55.21;99443.72;366653;108;1961838;-70
2021/07/25 01:56:05;;;;;;;16.08;11.63;;;;;;;22.23;55.31;99444.17;336747;106;2852070;-67
2021/07/25 01:57:10;;;;;;;16.47;12.34;;;;;;;22.11;55.34;99447.28;349430;109;1963946;-67
2021/07/25 01:58:16;;;;;;;19.45;12.60;;;;;;;22.11;55.37;99450.84;341184;109;1962024;-67
2021/07/25 01:59:27;;;;;;;17.02;12.01;;;;;;;22.12;55.64;99447.02;394407;104;1986124;-69
2021/07/25 02:00:37;;;;;;;16.24;11.62;;;;;;;21.97;55.69;99455.38;354311;105;1961860;-69
2021/07/25 02:01:49;;;;;;;19.21;13.47;;;;;;;22.10;55.80;99453.91;390833;104;2072005;-69
2021/07/25 02:02:56;;;;;;;16.14;12.02;;;;;;;21.99;55.60;99453.17;375835;107;1961948;-70
2021/07/25 02:04:19;;;;;;;16.93;11.09;;;;;;;22.02;55.57;99447.09;376901;105;1961972;-69
2021/07/25 02:05:35;;;;;;;17.03;12.03;;;;;;;22.14;55.63;99452.20;342639;104;2766871;-69
2021/07/25 02:06:41;;;;;;;20.39;12.99;;;;;;;22.02;55.68;99460.02;371152;107;1961854;-69
2021/07/25 02:07:53;;;;;;;19.05;12.88;;;;;;;22.32;55.29;99454.28;385697;104;2072060;-69
2021/07/25 02:08:59;;;;;;;17.54;12.91;;;;;;;22.03;55.44;99451.47;361952;105;1969029;-69
2021/07/25 02:10:13;;;;;;;20.42;12.96;;;;;;;21.98;56.01;99459.75;388673;104;2080028;-70
2021/07/25 02:11:19;;;;;;;19.82;11.53;;;;;;;21.86;56.11;99451.87;320783;107;2893973;-70
2021/07/25 02:12:43;;;;;;;17.49;12.54;;;;;;;21.82;56.30;99461.79;372602;106;1963015;-70
2021/07/25 02:13:55;;;;;;;19.54;13.33;;;;;;;21.92;56.39;99455.41;383291;106;2071949;-70
2021/07/25 02:15:00;;;;;;;18.02;12.85;;;;;;;21.81;56.19;99462.09;364997;109;1962036;-68
2021/07/25 02:16:14;;;;;;;18.70;12.89;;;;;;;21.87;56.47;99453.51;382519;106;2072950;-68
2021/07/25 02:17:19;;;;;;;19.85;12.39;;;;;;;21.76;56.47;99457.45;368930;109;1962089;-69
2021/07/25 02:18:31;;;;;;;18.64;12.83;;;;;;;21.84;56.60;99459.59;394079;104;1988882;-69
2021/07/25 02:19:36;;;;;;;18.85;13.01;;;;;;;21.71;56.65;99455.54;372487;105;1961108;-69
2021/07/25 02:21:01;;;;;;;17.16;12.35;;;;;;;21.66;56.72;99454.75;321538;106;2868841;-70
2021/07/25 02:22:13;;;;;;;17.25;11.71;;;;;;;21.83;56.69;99463.45;393191;104;1962031;-70
2021/07/25 02:23:18;;;;;;;18.69;13.24;;;;;;;21.81;56.64;99464.84;374356;107;1961997;-69
2021/07/25 02:24:24;;;;;;;15.72;12.45;;;;;;;21.74;56.72;99456.90;375079;107;1966021;-70
2021/07/25 02:25:38;;;;;;;21.19;13.14;;;;;;;21.86;56.84;99462.06;388553;104;2073929;-70
2021/07/25 02:26:43;;;;;;;18.48;13.18;;;;;;;21.87;56.32;99463.69;377044;106;1961890;-70
2021/07/25 02:27:55;;;;;;;19.58;12.62;;;;;;;21.84;56.97;99469.77;393277;104;1986957;-70
2021/07/25 02:29:00;;;;;;;19.89;12.38;;;;;;;21.69;56.85;99467.92;373412;106;1964934;-70
2021/07/25 02:30:24;;;;;;;17.82;12.68;;;;;;;21.72;56.96;99464.61;373358;105;1961991;-70
2021/07/25 02:31:36;;;;;;;19.01;12.64;;;;;;;21.79;57.26;99467.05;394557;104;1987038;-70
2021/07/25 02:32:41;;;;;;;18.48;12.72;;;;;;;21.67;57.14;99465.48;374344;107;1961972;-68
2021/07/25 02:33:54;;;;;;;17.32;12.44;;;;;;;21.73;57.24;99466.27;364430;104;2475066;-69
2021/07/25 02:34:59;;;;;;;17.59;12.47;;;;;;;21.63;57.19;99472.63;331231;106;2072914;-69
2021/07/25 02:36:23;;;;;;;18.48;12.69;;;;;;;21.64;57.23;99473.45;375412;106;1963959;-70
2021/07/25 02:37:35;;;;;;;20.59;13.24;;;;;;;21.74;57.39;99470.64;396548;104;1985984;-70
2021/07/25 02:38:40;;;;;;;19.26;12.28;;;;;;;21.62;57.25;99472.91;381121;105;1962068;-70
2021/07/25 02:39:52;;;;;;;20.47;13.20;;;;;;;21.73;57.29;99474.52;385097;106;1987014;-69
2021/07/25 02:40:57;;;;;;;17.05;12.84;;;;;;;21.63;57.28;99474.57;364412;109;1962018;-69
2021/07/25 02:42:09;;;;;;;20.10;12.61;;;;;;;21.77;57.22;99472.00;384928;104;2901022;-68
2021/07/25 02:43:14;;;;;;;17.97;11.93;;;;;;;21.66;57.14;99474.81;372812;107;1961972;-69
2021/07/25 02:44:38;;;;;;;19.03;12.43;;;;;;;21.62;57.10;99472.91;374408;105;1962009;-67
2021/07/25 02:45:43;;;;;;;19.22;12.38;;;;;;;21.62;57.17;99481.16;369460;107;1961990;-70
2021/07/25 02:46:55;;;;;;;17.77;12.06;;;;;;;21.70;57.32;99473.16;393432;104;1986023;-69
2021/07/25 02:48:00;;;;;;;17.94;12.54;;;;;;;21.66;57.01;99474.81;374978;107;1962064;-70
2021/07/25 02:49:07;;;;;;;20.58;13.15;;;;;;;21.67;57.02;99475.63;377015;107;1962796;-69
2021/07/25 02:50:19;;;;;;;17.84;12.82;;;;;;;21.80;57.12;99475.00;393933;103;1964979;-68
2021/07/25 02:51:24;;;;;;;19.81;13.11;;;;;;;21.67;57.25;99473.73;374276;105;1961958;-69
2021/07/25 02:52:37;;;;;;;20.59;14.18;;;;;;;21.77;57.19;99472.00;374468;106;3074933;-69
2021/07/25 02:53:42;;;;;;;18.26;13.64;;;;;;;21.68;57.09;99477.30;367183;109;1964074;-69
2021/07/25 02:55:06;;;;;;;18.61;12.58;;;;;;;21.69;57.17;99474.23;365377;109;1962045;-68
2021/07/25 02:56:19;;;;;;;18.09;12.57;;;;;;;21.83;57.05;99474.45;351250;104;2674034;-70
2021/07/25 02:57:24;;;;;;;18.81;12.49;;;;;;;21.72;56.77;99479.20;349750;107;1962053;-71
2021/07/25 02:58:36;;;;;;;18.98;12.63;;;;;;;21.86;56.76;99478.56;394111;104;1986027;-69
2021/07/25 02:59:41;;;;;;;17.14;12.17;;;;;;;21.76;56.71;99478.62;375369;106;1962016;-67
2021/07/25 03:01:13;;;;;;;19.02;12.55;;;;;;;21.77;56.68;99474.75;342269;106;1966007;-70
2021/07/25 03:02:25;;;;;;;23.39;11.88;;;;;;;21.90;56.81;99482.37;391631;104;1987940;-69
2021/07/25 03:03:32;;;;;;;18.81;13.03;;;;;;;21.80;56.59;99485.17;376345;105;1961997;-69
2021/07/25 03:04:46;;;;;;;17.29;11.79;;;;;;;21.92;56.58;99478.23;393524;104;1985940;-69
2021/07/25 03:05:58;;;;;;;17.78;12.09;;;;;;;21.94;56.62;99481.52;394210;104;1987000;-69
2021/07/25 03:07:21;;;;;;;19.92;13.22;;;;;;;21.87;56.43;99486.51;354424;106;1963063;-70
2021/07/25 03:08:34;;;;;;;20.43;12.36;;;;;;;22.00;56.47;99479.55;385957;106;1986948;-69
2021/07/25 03:09:39;;;;;;;18.27;12.26;;;;;;;21.89;56.39;99489.80;366144;108;1962034;-70
2021/07/25 03:11:07;;;;;;;17.76;11.83;;;;;;;21.97;56.19;99474.63;362896;111;1961903;-69
2021/07/25 03:12:19;;;;;;;16.64;11.94;;;;;;;22.10;56.05;99484.16;395356;104;1987060;-70
2021/07/25 03:13:26;;;;;;;20.07;12.32;;;;;;;21.98;55.92;99480.95;377257;105;1961929;-69
2021/07/25 03:14:38;;;;;;;19.60;12.80;;;;;;;22.08;55.96;99489.94;393827;104;1972917;-69
2021/07/25 03:15:43;;;;;;;20.88;12.93;;;;;;;21.99;55.81;99493.58;371849;108;1964409;-68
2021/07/25 03:17:07;;;;;;;18.86;12.55;;;;;;;22.02;55.84;99487.53;368117;108;1964010;-69
2021/07/25 03:18:19;;;;;;;21.01;12.79;;;;;;;22.26;55.62;99493.97;396381;104;1961904;-70
2021/07/25 03:19:24;;;;;;;20.24;12.67;;;;;;;22.14;55.52;99497.04;381421;105;1970021;-68
2021/07/25 03:20:36;;;;;;;20.19;12.67;;;;;;;22.16;55.97;99496.77;396110;104;1988000;-69
2021/07/25 03:21:41;;;;;;;17.48;12.02;;;;;;;22.06;55.82;99499.59;374576;107;1961882;-70
2021/07/25 03:23:05;;;;;;;18.09;12.73;;;;;;;22.10;55.81;99498.73;373713;105;1962029;-69
2021/07/25 03:24:17;;;;;;;19.66;11.93;;;;;;;22.26;55.63;99487.66;393818;104;1986955;-70
2021/07/25 03:25:22;;;;;;;17.96;12.67;;;;;;;22.31;55.33;99499.44;371461;107;1962003;-71
2021/07/25 03:26:35;;;;;;;19.77;13.27;;;;;;;22.53;54.92;99496.20;347112;103;2804984;-69
2021/07/25 03:27:40;;;;;;;17.49;12.09;;;;;;;22.47;54.81;99500.13;324661;107;2138920;-67
2021/07/25 03:29:05;;;;;;;20.71;12.89;;;;;;;22.48;54.65;99496.25;375060;107;1962054;-69
2021/07/25 03:30:17;;;;;;;17.27;12.10;;;;;;;22.71;54.62;99496.61;386092;106;1986039;-67
2021/07/25 03:31:22;;;;;;;17.82;11.84;;;;;;;22.59;54.40;99492.29;369389;107;1963037;-67
2021/07/25 03:32:34;;;;;;;18.22;12.69;;;;;;;22.75;54.49;99494.90;391730;103;1986057;-69
2021/07/25 03:33:40;;;;;;;17.69;12.98;;;;;;;22.58;54.42;99498.10;377028;106;1963065;-70
2021/07/25 03:35:04;;;;;;;20.63;13.28;;;;;;;22.54;54.46;99494.27;372734;107;1962042;-67
2021/07/25 03:36:17;;;;;;;19.87;12.63;;;;;;;22.63;54.64;99502.75;333803;109;2682102;-70
2021/07/25 03:37:23;;;;;;;20.37;12.38;;;;;;;22.43;54.81;99500.98;307275;111;2151967;-69
2021/07/25 03:38:30;;;;;;;19.14;12.98;;;;;;;22.50;54.69;99501.48;357351;113;1961980;-70
2021/07/25 07:23:05;;;;;;;12.68;8.73;;;;;;;29.16;37.88;99585.68;351243;113;1960655;-70
2021/07/25 07:24:54;;;;;;;14.96;9.45;;;;;;;29.21;37.19;99579.13;401031;103;2038037;-71
2021/07/25 07:26:33;;;;;;;13.99;8.98;;;;;;;29.11;36.93;99583.11;362685;108;1963026;-69
2021/07/25 07:28:19;;;;;;;13.61;9.23;;;;;;;29.16;37.35;99574.55;383104;106;2036961;-70
2021/07/25 07:30:00;;;;;;;16.21;8.34;;;;;;;29.04;37.23;99578.04;331555;107;2868962;-71
2021/07/25 07:31:45;;;;;;;14.50;9.15;;;;;;;29.14;37.15;99577.69;387590;105;2046997;-70
2021/07/25 07:33:26;;;;;;;16.95;8.62;;;;;;;29.06;37.44;99575.75;374359;107;1961949;-70
2021/07/25 07:35:33;;;;;;;14.99;9.13;;;;;;;29.17;37.09;99578.17;351561;104;2889097;-71
2021/07/25 07:37:13;;;;;;;14.68;9.54;;;;;;;29.07;36.98;99576.56;375504;105;1962007;-69
2021/07/25 07:38:52;;;;;;;18.17;9.55;;;;;;;29.17;36.57;99572.61;331482;105;2175930;-68
2021/07/25 07:40:34;;;;;;;15.22;9.72;;;;;;;29.20;36.97;99577.51;320350;105;2542072;-70
2021/07/25 07:42:20;;;;;;;16.18;9.69;;;;;;;29.26;37.08;99573.38;380765;105;2047038;-71
2021/07/25 07:43:59;;;;;;;14.96;9.01;;;;;;;29.22;37.00;99573.24;334827;106;2887997;-71
2021/07/25 07:45:39;;;;;;;13.10;8.77;;;;;;;29.28;36.71;99585.00;376358;106;1961944;-71
2021/07/25 07:47:25;;;;;;;13.21;9.13;;;;;;;29.33;36.97;99577.28;390165;105;2046998;-69
2021/07/25 07:49:04;;;;;;;13.22;9.38;;;;;;;29.22;37.12;99580.78;374907;106;1961988;-69
2021/07/25 07:50:49;;;;;;;16.82;9.71;;;;;;;29.31;37.16;99575.98;390255;104;2047953;-69
2021/07/25 07:52:28;;;;;;;13.66;8.91;;;;;;;29.19;36.85;99573.08;339797;106;2070066;-70
2021/07/25 07:54:06;;;;;;;15.16;8.72;;;;;;;29.24;36.64;99576.52;373778;107;1962055;-71
2021/07/25 07:55:52;;;;;;;15.89;9.54;;;;;;;29.48;36.59;99575.08;390760;105;2039064;-70
2021/07/25 07:57:31;;;;;;;16.21;9.27;;;;;;;29.48;36.53;99580.65;356882;107;1961899;-70
2021/07/25 07:59:16;;;;;;;12.57;8.18;;;;;;;29.77;35.58;99577.09;407604;101;2046979;-71
2021/07/25 08:00:57;;;;;;;18.74;8.71;;;;;;;29.73;35.39;99582.52;333105;105;2855974;-70
2021/07/25 08:02:46;;;;;;;13.03;8.04;;;;;;;29.91;35.03;99583.24;399738;102;2047016;-69
2021/07/25 08:04:24;;;;;;;10.87;8.12;;;;;;;29.76;35.05;99581.03;383962;103;1964069;-70
2021/07/25 08:06:09;;;;;;;15.15;8.53;;;;;;;29.92;35.32;99587.65;382671;105;2046944;-70
2021/07/25 08:07:48;;;;;;;15.46;8.58;;;;;;;29.88;35.34;99588.69;375609;106;1961891;-71
2021/07/25 08:09:27;;;;;;;15.87;8.61;;;;;;;29.84;35.43;99584.92;375177;106;1962064;-70
2021/07/25 08:11:06;;;;;;;12.99;7.58;;;;;;;29.89;35.46;99587.52;356337;107;1962803;-71
2021/07/25 08:12:52;;;;;;;17.36;8.74;;;;;;;30.00;35.42;99580.39;408261;101;2046936;-71
2021/07/25 08:14:51;;;;;;;14.33;7.74;;;;;;;29.94;34.89;99585.34;394876;103;2047356;-70
2021/07/25 08:16:49;;;;;;;13.95;8.24;;;;;;;29.81;34.67;99586.41;371054;105;1962159;-71
2021/07/25 08:18:34;;;;;;;13.67;8.27;;;;;;;29.95;34.92;99589.75;352310;104;2867997;-70
2021/07/25 08:20:15;;;;;;;16.56;8.31;;;;;;;29.87;35.01;99590.63;373794;107;1963004;-70
2021/07/25 08:21:53;;;;;;;15.61;9.26;;;;;;;29.88;35.37;99588.69;375861;106;1961863;-72
2021/07/25 08:23:50;;;;;;;11.97;7.67;;;;;;;29.96;35.47;99593.38;368542;109;1962005;-71
2021/07/25 08:25:36;;;;;;;12.94;7.99;;;;;;;30.15;35.38;99582.58;377972;106;2993858;-71
2021/07/25 08:27:21;;;;;;;15.61;8.94;;;;;;;30.02;35.04;99576.12;350682;107;1961952;-71
2021/07/25 08:28:33;;;;;;;16.14;9.22;;;;;;;30.33;34.73;99585.28;396139;104;1966914;-71
2021/07/25 08:29:39;;;;;;;14.28;8.34;;;;;;;30.26;34.50;99583.02;380695;105;1961949;-70
2021/07/25 08:30:52;;;;;;;13.94;7.92;;;;;;;30.56;34.30;99580.95;357029;104;2166964;-71
2021/07/25 08:31:59;;;;;;;15.63;8.76;;;;;;;30.64;34.08;99574.51;358536;107;1964072;-70
2021/07/25 08:33:04;;;;;;;14.21;8.83;;;;;;;30.75;33.76;99580.47;374993;107;1961820;-70
2021/07/25 08:34:17;;;;;;;13.43;7.29;;;;;;;31.04;33.37;99581.49;392591;104;1986019;-71
2021/07/25 08:35:22;;;;;;;13.75;8.86;;;;;;;31.02;33.42;99584.64;373053;107;1961950;-70
2021/07/25 08:36:38;;;;;;;13.87;8.43;;;;;;;31.32;33.50;99584.45;384477;103;2072002;-71
2021/07/25 08:37:44;;;;;;;16.02;8.37;;;;;;;31.27;33.36;99582.70;375438;107;1961897;-71
2021/07/25 08:38:50;;;;;;;14.67;8.09;;;;;;;31.33;33.18;99578.54;373544;107;1964259;-70
2021/07/25 08:40:03;;;;;;;13.21;8.16;;;;;;;31.50;32.98;99585.09;387031;104;2071943;-71
2021/07/25 08:41:17;;;;;;;10.49;6.72;;;;;;;31.43;32.35;99580.07;369916;107;1962032;-70
2021/07/25 08:42:33;;;;;;;11.28;6.84;;;;;;;31.50;31.51;99574.73;393879;104;1985946;-70
2021/07/25 08:43:45;;;;;;;13.61;7.53;;;;;;;31.40;30.95;99585.55;374000;107;1963008;-71
2021/07/25 08:45:10;;;;;;;11.36;7.19;;;;;;;31.36;31.32;99584.56;372448;107;1962067;-71
2021/07/25 08:46:23;;;;;;;11.48;6.91;;;;;;;31.49;30.84;99583.44;398342;104;1966094;-70
2021/07/25 08:47:34;;;;;;;12.12;7.24;;;;;;;31.39;30.92;99583.93;372451;105;2921063;-70
2021/07/25 08:48:48;;;;;;;11.52;7.26;;;;;;;31.54;31.10;99583.22;384591;105;1987014;-69
2021/07/25 08:49:56;;;;;;;13.49;8.62;;;;;;;31.50;30.88;99590.67;365784;108;1962028;-70
2021/07/25 08:51:22;;;;;;;11.52;6.61;;;;;;;31.56;30.76;99591.25;358349;110;1963990;-71
2021/07/25 08:52:44;;;;;;;11.49;7.00;;;;;;;31.76;29.61;99595.91;393284;104;1995029;-71
2021/07/25 08:53:56;;;;;;;10.47;6.97;;;;;;;31.67;29.95;99593.22;374531;106;1962046;-71
2021/07/25 08:55:03;;;;;;;;;;;;;;;31.66;29.90;99591.60;377559;106;1963062;-70
2021/07/25 08:56:17;;;;;;;11.57;7.13;;;;;;;31.87;30.10;99587.88;394416;104;1972991;-71
2021/07/25 08:57:28;;;;;;;11.23;7.07;;;;;;;31.87;29.83;99587.88;374879;106;1962019;-72
2021/07/25 08:58:38;;;;;;;10.79;6.57;;;;;;;31.97;29.37;99587.44;374084;107;1961954;-71
2021/07/25 08:59:53;;;;;;;11.43;6.88;;;;;;;32.19;28.92;99589.70;351583;104;2791970;-71
2021/07/25 09:01:00;;;;;;;15.38;7.41;;;;;;;32.23;28.98;99589.80;375622;106;1961882;-72
2021/07/25 09:02:18;;;;;;;9.20;6.13;;;;;;;32.37;29.14;99586.64;390066;101;1986854;-70
2021/07/25 09:03:24;;;;;;;12.48;6.88;;;;;;;32.16;29.32;99592.40;382121;105;1962050;-71
2021/07/25 09:04:50;;;;;;;14.12;7.84;;;;;;;32.19;29.42;99589.70;327426;103;2657052;-71
2021/07/25 09:06:03;;;;;;;10.65;6.70;;;;;;;32.57;29.30;99593.22;379219;108;1987002;-71
2021/07/25 09:07:09;;;;;;;12.77;7.44;;;;;;;32.48;28.90;99595.38;352018;110;2825006;-71
2021/07/25 09:08:23;;;;;;;12.31;7.54;;;;;;;32.52;28.91;99593.47;389165;103;2071971;-71
2021/07/25 09:09:28;;;;;;;13.03;8.01;;;;;;;32.31;28.77;99597.26;373504;107;1962035;-70
2021/07/25 09:10:55;;;;;;;11.29;6.79;;;;;;;32.33;28.86;99588.50;369130;109;1962010;-70
2021/07/25 09:12:09;;;;;;;9.67;6.74;;;;;;;32.40;28.87;99591.52;385361;104;1985917;-72
2021/07/25 09:13:14;;;;;;;11.88;7.92;;;;;;;32.26;28.88;99591.91;375509;107;1964053;-71
2021/07/25 09:14:26;;;;;;;13.27;7.21;;;;;;;32.37;29.15;99595.02;394964;104;1985998;-71
2021/07/25 09:15:35;;;;;;;10.74;6.93;;;;;;;32.36;29.02;99587.79;373847;106;1962901;-71
2021/07/25 09:16:59;;;;;;;9.28;6.75;;;;;;;32.38;28.80;99591.86;374767;107;1962927;-70
2021/07/25 09:18:11;;;;;;;11.76;7.77;;;;;;;32.51;29.08;99595.47;390443;104;2072029;-71
2021/07/25 09:19:16;;;;;;;14.03;7.72;;;;;;;32.42;28.83;99591.98;354252;107;1975044;-70
2021/07/25 09:20:33;;;;;;;12.49;8.12;;;;;;;32.47;28.91;99582.51;378838;108;1988026;-71
2021/07/25 09:21:49;;;;;;;11.48;7.71;;;;;;;32.36;28.87;99587.79;361831;111;1961992;-70
2021/07/25 09:23:09;;;;;;;11.43;7.64;;;;;;;32.52;28.39;99579.49;392381;104;2071078;-70
2021/07/25 09:24:32;;;;;;;13.56;8.38;;;;;;;32.52;28.53;99587.88;359966;107;1969888;-70
2021/07/25 09:25:57;;;;;;;9.67;6.12;;;;;;;32.63;28.45;99591.83;357558;109;1962009;-71
2021/07/25 09:27:06;;;;;;;10.93;6.69;;;;;;;32.78;28.33;99591.03;366393;109;1962084;-72
2021/07/25 09:28:30;;;;;;;10.58;6.52;;;;;;;32.78;28.30;99599.42;393778;103;1985942;-72
2021/07/25 09:29:37;;;;;;;12.75;7.41;;;;;;;32.60;28.08;99598.94;375713;107;1961958;-72